Airfield :
LOGIN :

Register | Disclaimer

   EN    FR    IT 

 










Legend :    VFR   Marginal VFR   IFR   Intensive IFR   Very Intensive IFR
Visi :
Ceiling :
>= 8 km
>= 3000ft
5 to 8 km
1000 to 3000 ft
1500m to 5 km
500 to 1000 ft
800 to 1500m
200 to 500 ft
< 800m
< 200 ft
Symbols :   Thunderstorms  Fog  Heavy snow  Heavy precipitations  Wind > 20 kt
SIGMETs :     Misc.  Thunderstorms  Icing  Turbulence  Mountain Waves  Volcanic Ashes







- Airport Elevation : 75 ft
- IATA code : MRH


EGYM - RAF Marham

CURRENT METAR :
  • 190740Z 32010KT 8000 -RA SCT010 SCT015 16/14 Q1022 GRN TEMPO SCT010 GRN

EXPIRED METARs :
  • 190650Z 26010KT 9999 VCSH FEW010 SCT015 BKN030 18/15 Q1021 WHT TEMPO SCT010 GRN
  • 190550Z 24010KT 9999 FEW012 BKN024 17/14 Q1021 WHT NOSIG

TAF AMD TAF EGYM
Valid from the 19 at 09:00 until the 19 at 18:00 UTC


190751Z 1909/1918 24010KT 9999 BKN020
TEMPO 1909/1912 33010KT SCT012
BECMG 1911/1913 BKN025
BECMG 1914/1915 27010KT
No reported NOTAMs for that airfield.
1 SIGMET reported for the London FIR (EGTT) :
 
Severe mountain waves
EGTT SIGMET 01 VALID 190605/191000 EGRR
EGTT LONDON FIR SEV MTW FCST WI N5500 E00200 - N5330 E00200 - N5330 W00300 - N5500 W00500 - N5500 E00200 FL040/240 STNR NC=



MET'MAP, your aeronautical weather chart ! - Copyright ORBIFLY December 2007 - Disclaimer

ORBIFLY MET'MAP TEAM :

Programming & Development : Alexandra Zaïnal
Concept & Development : Baudouin d'Aumeries
Co-Development & Prog : Marc-Olivier Méhu
Technical & hardware support : Manuel Goepfert

Contact : metmap@orbifly.com




SOURCES & CREDITS :

   NOAA